createdAt,value
2018-07-02T00:00:25.542Z,1.13
2018-07-02T00:02:55.037Z,1.27
2018-07-02T00:05:31.272Z,1.50
2018-07-02T00:08:01.271Z,1.30
2018-07-02T00:10:30.708Z,1.23
2018-07-02T00:13:00.118Z,1.20
2018-07-02T00:15:29.590Z,1.30
2018-07-02T00:17:59.092Z,1.23
2018-07-02T00:20:28.125Z,1.20
2018-07-02T00:22:57.455Z,1.10
2018-07-02T00:25:27.271Z,1.10
2018-07-02T00:27:56.639Z,1.23
2018-07-02T00:30:32.626Z,0.93
2018-07-02T00:33:02.000Z,1.30
2018-07-02T00:35:31.332Z,1.40
2018-07-02T00:38:00.753Z,1.10
2018-07-02T00:40:30.352Z,1.20
2018-07-02T00:42:59.852Z,1.10
2018-07-02T00:45:29.452Z,1.13
2018-07-02T00:47:58.612Z,1.10
2018-07-02T00:50:27.950Z,1.30
2018-07-02T00:52:57.386Z,1.30
2018-07-02T00:55:43.048Z,1.20
2018-07-02T00:58:17.172Z,1.10
2018-07-02T01:00:46.552Z,1.20
2018-07-02T01:03:15.977Z,1.40
2018-07-02T01:05:46.248Z,1.10
2018-07-02T01:08:15.948Z,1.30
2018-07-02T01:14:04.984Z,1.27
2018-07-02T01:16:40.789Z,1.33
2018-07-02T01:19:30.047Z,1.03
2018-07-02T01:22:04.631Z,1.20
2018-07-02T01:24:34.116Z,1.47
2018-07-02T01:27:03.731Z,1.10
2018-07-02T01:29:33.793Z,1.43
2018-07-02T01:34:44.278Z,1.23
2018-07-02T01:37:13.602Z,1.00
2018-07-02T01:39:43.590Z,1.23
2018-07-02T01:42:19.117Z,1.40
2018-07-02T01:44:51.651Z,1.33
2018-07-02T01:47:20.709Z,1.60
2018-07-02T01:49:49.933Z,1.30
2018-07-02T01:52:19.020Z,1.23
2018-07-02T01:54:48.314Z,1.20
2018-07-02T01:57:17.715Z,1.10
2018-07-02T01:59:47.096Z,1.23
2018-07-02T02:02:16.513Z,1.27
2018-07-02T02:04:45.567Z,1.73
2018-07-02T02:07:14.835Z,1.30
2018-07-02T02:09:43.867Z,1.37
2018-07-02T02:12:13.195Z,1.17
2018-07-02T02:14:42.625Z,1.03
2018-07-02T02:17:12.060Z,1.10
2018-07-02T02:19:41.446Z,1.33
2018-07-02T02:22:10.519Z,1.57
2018-07-02T02:24:39.859Z,1.20
2018-07-02T02:27:09.325Z,1.50
2018-07-02T02:29:38.712Z,1.57
2018-07-02T02:32:08.075Z,1.80
2018-07-02T02:34:37.476Z,1.30
2018-07-02T02:37:06.885Z,1.17
2018-07-02T02:39:36.255Z,1.33
2018-07-02T02:42:06.070Z,1.00
2018-07-02T02:44:35.539Z,1.27
2018-07-02T02:47:04.976Z,1.33
2018-07-02T02:49:35.341Z,1.13
2018-07-02T02:52:04.791Z,1.27
2018-07-02T02:54:34.525Z,1.10
2018-07-02T02:57:03.474Z,1.00
2018-07-02T02:59:32.737Z,1.20
2018-07-02T03:02:02.096Z,1.10
2018-07-02T03:04:31.478Z,1.10
2018-07-02T03:07:01.065Z,1.10
2018-07-02T03:09:30.315Z,1.10
2018-07-02T03:11:59.658Z,1.13
2018-07-02T03:14:29.132Z,1.07
2018-07-02T03:16:58.700Z,0.97
2018-07-02T03:19:28.037Z,1.50
2018-07-02T03:21:57.446Z,1.50
2018-07-02T03:24:26.778Z,1.20
2018-07-02T03:26:55.972Z,1.13
2018-07-02T03:29:25.874Z,1.30
2018-07-02T03:31:56.107Z,1.30
2018-07-02T03:34:25.458Z,1.47
2018-07-02T03:36:56.057Z,1.53
2018-07-02T03:39:25.349Z,1.40
2018-07-02T03:41:55.048Z,1.43
2018-07-02T03:44:24.662Z,1.80
2018-07-02T03:46:53.724Z,1.60
2018-07-02T03:49:23.702Z,1.47
2018-07-02T03:51:53.149Z,1.63
2018-07-02T03:54:22.593Z,2.03
2018-07-02T03:56:51.996Z,1.60
2018-07-02T03:59:21.321Z,1.60
2018-07-02T04:01:50.725Z,1.50
2018-07-02T04:04:20.045Z,1.53
2018-07-02T04:06:49.382Z,2.03
2018-07-02T04:09:18.831Z,1.90
2018-07-02T04:11:48.196Z,1.27
2018-07-02T04:14:17.522Z,1.70
2018-07-02T04:16:47.030Z,1.43
2018-07-02T04:19:17.012Z,1.27
2018-07-02T04:21:46.070Z,1.43
2018-07-02T04:24:15.336Z,1.43
2018-07-02T04:26:44.676Z,1.53
2018-07-02T04:29:14.092Z,1.70
2018-07-02T04:31:43.187Z,1.80
2018-07-02T04:34:12.751Z,1.40
2018-07-02T04:36:41.997Z,1.57
2018-07-02T04:39:11.063Z,1.23
2018-07-02T04:41:40.355Z,1.73
2018-07-02T04:44:09.788Z,1.20
2018-07-02T04:46:39.143Z,1.20
2018-07-02T04:49:08.518Z,1.10
2018-07-02T04:51:38.051Z,1.00
2018-07-02T04:54:07.901Z,1.43
2018-07-02T04:56:36.929Z,1.40
2018-07-02T04:59:06.613Z,1.20
2018-07-02T05:01:35.988Z,1.50
2018-07-02T05:04:05.472Z,1.20
2018-07-02T05:06:34.541Z,1.13
2018-07-02T05:09:04.564Z,1.40
2018-07-02T05:11:34.520Z,1.33
2018-07-02T05:14:03.860Z,1.10
2018-07-02T05:16:33.296Z,1.60
2018-07-02T05:19:02.709Z,1.57
2018-07-02T05:21:32.460Z,1.20
2018-07-02T05:24:02.561Z,1.20
2018-07-02T05:26:31.945Z,1.50
2018-07-02T05:29:02.022Z,1.60
2018-07-02T05:31:31.613Z,1.20
2018-07-02T05:34:00.982Z,1.20
2018-07-02T05:36:30.595Z,1.23
2018-07-02T05:38:59.864Z,1.40
2018-07-02T05:41:28.882Z,1.53
2018-07-02T05:43:57.805Z,1.03
2018-07-02T05:46:27.210Z,1.30
2018-07-02T05:48:56.574Z,1.30
2018-07-02T05:51:25.932Z,1.50
2018-07-02T05:53:54.894Z,1.70
2018-07-02T05:56:24.904Z,2.60
2018-07-02T05:58:54.298Z,3.30
2018-07-02T06:01:23.904Z,1.70
2018-07-02T06:03:54.353Z,1.70
2018-07-02T06:06:24.556Z,1.40
2018-07-02T06:08:54.152Z,1.60
2018-07-02T06:11:25.759Z,1.30
2018-07-02T06:13:56.116Z,1.23
2018-07-02T06:16:25.930Z,1.43
2018-07-02T06:18:55.946Z,2.70
2018-07-02T06:21:25.345Z,2.40
2018-07-02T06:23:55.686Z,1.60
2018-07-02T06:26:25.968Z,1.53
2018-07-02T06:28:55.054Z,1.30
2018-07-02T06:31:24.324Z,1.17
2018-07-02T06:33:53.710Z,1.80
2018-07-02T06:36:23.165Z,1.30
2018-07-02T06:38:52.620Z,1.30
2018-07-02T06:41:22.717Z,1.70
2018-07-02T06:43:52.734Z,1.30
2018-07-02T06:46:22.999Z,1.50
2018-07-02T06:48:51.956Z,1.23
2018-07-02T06:51:21.198Z,1.53
2018-07-02T06:53:50.535Z,1.13
2018-07-02T06:56:19.961Z,1.20
2018-07-02T06:58:49.386Z,1.13
2018-07-02T07:01:18.805Z,1.10
2018-07-02T07:03:48.191Z,1.50
2018-07-02T07:06:17.487Z,1.10
2018-07-02T07:08:46.763Z,1.30
2018-07-02T07:11:16.092Z,1.30
2018-07-02T07:13:45.443Z,1.83
2018-07-02T07:16:15.721Z,1.27
2018-07-02T07:18:45.101Z,1.10
2018-07-02T07:21:15.340Z,1.07
2018-07-02T07:23:45.826Z,0.87
2018-07-02T07:26:15.811Z,1.40
2018-07-02T07:31:06.917Z,1.30
2018-07-02T07:33:36.327Z,1.00
2018-07-02T07:36:05.815Z,1.77
2018-07-02T07:38:36.076Z,0.60
2018-07-02T07:41:05.625Z,0.90
2018-07-02T07:43:34.966Z,0.97
2018-07-02T07:46:05.745Z,1.40
2018-07-02T07:48:38.908Z,0.90
2018-07-02T07:51:08.447Z,1.17
2018-07-02T07:53:37.825Z,0.90
2018-07-02T07:56:07.261Z,1.10
2018-07-02T07:58:36.731Z,0.77
2018-07-02T08:01:06.101Z,1.10
2018-07-02T08:03:35.871Z,1.30
2018-07-02T08:06:05.435Z,0.87
2018-07-02T08:08:34.427Z,0.90
2018-07-02T08:11:03.583Z,1.30
2018-07-02T08:13:33.334Z,1.03
2018-07-02T08:16:02.406Z,1.00
2018-07-02T08:18:31.696Z,1.00
2018-07-02T08:21:00.721Z,0.70
2018-07-02T08:23:30.367Z,0.90
2018-07-02T08:26:00.107Z,1.20
2018-07-02T08:28:50.128Z,1.10
2018-07-02T08:31:19.468Z,1.40
2018-07-02T08:33:48.949Z,1.20
2018-07-02T08:36:18.427Z,1.07
2018-07-02T08:38:47.532Z,0.80
2018-07-02T08:41:16.497Z,0.90
2018-07-02T08:43:45.658Z,0.80
2018-07-02T08:46:15.089Z,0.73
2018-07-02T08:48:44.473Z,0.90
2018-07-02T08:51:13.878Z,0.90
2018-07-02T08:53:42.910Z,1.17
2018-07-02T08:56:12.675Z,0.90
2018-07-02T08:58:41.964Z,0.80
2018-07-02T09:01:11.367Z,0.70
2018-07-02T09:03:42.326Z,0.67
2018-07-02T09:06:12.404Z,1.10
2018-07-02T09:08:41.902Z,0.80
2018-07-02T09:11:13.384Z,1.10
2018-07-02T09:13:43.308Z,0.80
2018-07-02T09:16:12.724Z,1.10
2018-07-02T09:18:42.121Z,1.10
2018-07-02T09:21:11.612Z,0.77
2018-07-02T09:23:41.067Z,0.90
2018-07-02T09:26:11.912Z,0.73
2018-07-02T09:28:42.184Z,1.10
2018-07-02T09:31:11.595Z,1.00
2018-07-02T09:33:43.756Z,0.73
2018-07-02T09:36:13.125Z,1.10
2018-07-02T09:38:42.632Z,1.60
2018-07-02T09:41:12.023Z,1.03
2018-07-02T09:43:41.460Z,1.23
2018-07-02T09:46:10.606Z,1.00
2018-07-02T09:48:40.031Z,1.00
2018-07-02T09:51:09.543Z,1.20
2018-07-02T09:53:39.045Z,1.00
2018-07-02T09:56:08.342Z,1.10
2018-07-02T09:58:37.869Z,1.30
2018-07-02T10:01:08.663Z,1.07
2018-07-02T10:03:38.066Z,1.07
2018-07-02T10:06:07.526Z,0.93
2018-07-02T10:08:36.607Z,1.10
2018-07-02T10:11:05.798Z,1.33
2018-07-02T10:13:35.284Z,0.97
2018-07-02T10:16:04.741Z,1.17
2018-07-02T10:18:34.411Z,1.00
2018-07-02T10:21:03.416Z,0.90
2018-07-02T10:23:37.333Z,1.00
2018-07-02T10:26:02.909Z,1.27
2018-07-02T10:28:32.189Z,1.30
2018-07-02T10:31:02.108Z,1.70
2018-07-02T10:33:31.508Z,1.67
2018-07-02T10:36:01.713Z,1.60
2018-07-02T10:38:31.002Z,1.00
2018-07-02T10:41:00.392Z,1.20
2018-07-02T10:43:29.811Z,1.20
2018-07-02T10:45:59.595Z,0.97
2018-07-02T10:48:28.625Z,1.13
2018-07-02T10:50:57.672Z,1.17
2018-07-02T10:53:27.777Z,1.03
2018-07-02T10:55:57.629Z,0.90
2018-07-02T10:58:27.197Z,1.20
2018-07-02T11:00:56.586Z,1.70
2018-07-02T11:03:26.025Z,1.50
2018-07-02T11:05:55.466Z,1.10
2018-07-02T11:08:25.043Z,0.73
2018-07-02T11:10:55.209Z,1.10
2018-07-02T11:13:24.618Z,1.90
2018-07-02T11:15:53.669Z,0.80
2018-07-02T11:18:22.587Z,1.00
2018-07-02T11:20:52.035Z,1.00
2018-07-02T11:23:21.082Z,1.00
2018-07-02T11:25:50.413Z,1.00
2018-07-02T11:28:19.474Z,1.10
2018-07-02T11:30:48.742Z,1.20
2018-07-02T11:33:18.046Z,1.20
2018-07-02T11:35:47.521Z,1.60
2018-07-02T11:38:17.330Z,1.10
2018-07-02T11:40:46.660Z,1.40
2018-07-02T11:43:16.969Z,0.97
2018-07-02T11:45:45.935Z,1.17
2018-07-02T11:48:15.827Z,1.20
2018-07-02T11:50:45.163Z,1.30
2018-07-02T11:53:14.537Z,0.83
2018-07-02T11:55:43.880Z,0.90
2018-07-02T11:58:12.858Z,1.07
2018-07-02T12:00:42.284Z,1.10
2018-07-02T12:03:14.633Z,0.80
2018-07-02T12:05:44.565Z,0.73
2018-07-02T12:08:13.869Z,0.90
2018-07-02T12:10:43.264Z,1.20
2018-07-02T12:13:12.248Z,1.63
2018-07-02T12:15:41.658Z,0.80
2018-07-02T12:18:11.028Z,0.77
2018-07-02T12:20:40.417Z,0.90
2018-07-02T12:23:10.771Z,0.83
2018-07-02T12:25:40.208Z,1.20
2018-07-02T12:28:09.560Z,0.70
2018-07-02T12:30:39.019Z,1.50
2018-07-02T12:33:08.412Z,1.50
2018-07-02T12:35:37.765Z,1.60
2018-07-02T12:38:07.429Z,1.93
2018-07-02T12:40:36.880Z,1.90
2018-07-02T12:43:07.246Z,1.30
2018-07-02T12:45:36.939Z,3.10
2018-07-02T12:48:08.120Z,2.80
2018-07-02T12:50:37.529Z,1.33
2018-07-02T12:53:07.021Z,1.40
2018-07-02T12:55:36.480Z,1.63
2018-07-02T12:58:05.843Z,5.83
2018-07-02T13:00:35.171Z,5.17
2018-07-02T13:03:04.639Z,1.50
2018-07-02T13:05:34.309Z,1.40
2018-07-02T13:08:03.838Z,3.70
2018-07-02T13:10:33.564Z,1.70
2018-07-02T13:13:04.040Z,1.53
2018-07-02T13:15:33.084Z,1.00
2018-07-02T13:18:02.320Z,1.03
2018-07-02T13:20:33.072Z,1.00
2018-07-02T13:23:02.667Z,1.07
2018-07-02T13:25:31.723Z,0.90
2018-07-02T13:28:02.375Z,1.00
2018-07-02T13:30:31.697Z,0.87
2018-07-02T13:33:00.981Z,1.13
2018-07-02T13:35:30.740Z,1.20
2018-07-02T13:38:00.135Z,0.93
2018-07-02T13:40:29.417Z,1.03
2018-07-02T13:43:09.751Z,0.90
2018-07-02T13:45:38.995Z,1.03
2018-07-02T13:48:09.872Z,1.50
2018-07-02T13:50:39.639Z,1.10
2018-07-02T13:53:09.261Z,1.20
2018-07-02T13:55:38.713Z,1.50
2018-07-02T13:58:08.258Z,1.13
2018-07-02T14:00:37.646Z,1.10
2018-07-02T14:03:07.129Z,1.10
2018-07-02T14:05:36.239Z,1.07
2018-07-02T14:08:05.562Z,0.93
2018-07-02T14:10:34.904Z,0.77
2018-07-02T14:13:04.374Z,1.10
2018-07-02T14:15:33.814Z,1.20
2018-07-02T14:18:03.488Z,1.17
2018-07-02T14:20:33.333Z,1.23
2018-07-02T14:23:02.739Z,1.83
2018-07-02T14:25:31.777Z,1.10
2018-07-02T14:28:00.789Z,1.20
2018-07-02T14:30:30.078Z,1.13
2018-07-02T14:32:59.599Z,1.00
2018-07-02T14:35:29.120Z,1.30
2018-07-02T14:37:58.583Z,0.90
2018-07-02T14:40:28.032Z,1.47
2018-07-02T14:42:57.549Z,1.47
2018-07-02T14:45:26.770Z,0.80
2018-07-02T14:47:56.015Z,1.30
2018-07-02T14:50:25.394Z,1.17
2018-07-02T14:52:55.144Z,1.30
2018-07-02T14:55:24.635Z,1.40
2018-07-02T14:57:54.114Z,1.47
2018-07-02T15:00:23.397Z,2.20
2018-07-02T15:02:52.877Z,1.53
2018-07-02T15:05:22.359Z,1.30
2018-07-02T15:07:51.760Z,1.30
2018-07-02T15:10:21.171Z,1.70
2018-07-02T15:12:50.554Z,1.33
2018-07-02T15:15:20.176Z,1.10
2018-07-02T15:17:49.546Z,1.20
2018-07-02T15:20:19.285Z,1.40
2018-07-02T15:22:49.303Z,0.90
2018-07-02T15:25:18.805Z,1.90
2018-07-02T15:27:48.487Z,1.80
2018-07-02T15:30:18.120Z,1.30
2018-07-02T15:32:47.621Z,0.90
2018-07-02T15:35:16.688Z,1.47
2018-07-02T15:37:46.501Z,1.40
2018-07-02T15:40:15.844Z,1.30
2018-07-02T15:42:45.869Z,0.80
2018-07-02T15:45:15.273Z,1.70
2018-07-02T15:47:44.685Z,1.40
2018-07-02T15:50:14.048Z,1.13
2018-07-02T15:52:43.526Z,1.30
2018-07-02T15:55:13.599Z,1.80
2018-07-02T15:57:42.668Z,1.30
2018-07-02T16:00:12.095Z,1.60
2018-07-02T16:02:41.416Z,1.30
2018-07-02T16:05:12.425Z,1.40
2018-07-02T16:07:42.326Z,1.20
2018-07-02T16:10:11.673Z,1.33
2018-07-02T16:12:41.689Z,2.20
2018-07-02T16:15:11.034Z,1.07
2018-07-02T16:17:41.842Z,1.30
2018-07-02T16:20:11.764Z,1.00
2018-07-02T16:22:41.198Z,0.90
2018-07-02T16:25:10.229Z,1.13
2018-07-02T16:27:39.869Z,1.37
2018-07-02T16:30:10.159Z,1.40
2018-07-02T16:32:39.656Z,1.30
2018-07-02T16:35:08.655Z,1.40
2018-07-02T16:37:38.148Z,1.30
2018-07-02T16:40:07.225Z,1.10
2018-07-02T16:42:36.510Z,1.20
2018-07-02T16:45:06.037Z,1.20
2018-07-02T16:47:35.454Z,1.67
2018-07-02T16:50:05.061Z,1.37
2018-07-02T16:52:34.590Z,1.27
2018-07-02T16:55:04.091Z,1.30
2018-07-02T16:57:33.595Z,1.20
2018-07-02T17:00:03.140Z,1.00
2018-07-02T17:02:32.880Z,1.23
2018-07-02T17:05:02.027Z,1.00
2018-07-02T17:07:31.991Z,0.90
2018-07-02T17:10:01.191Z,1.30
2018-07-02T17:12:31.026Z,1.37
2018-07-02T17:15:00.457Z,1.30
2018-07-02T17:17:29.914Z,1.83
2018-07-02T17:19:59.491Z,1.30
2018-07-02T17:22:29.016Z,1.70
2018-07-02T17:24:58.456Z,1.40
2018-07-02T17:27:28.512Z,1.40
2018-07-02T17:29:58.351Z,2.00
2018-07-02T17:32:28.542Z,1.40
2018-07-02T17:34:58.498Z,1.40
2018-07-02T17:37:27.595Z,1.70
2018-07-02T17:39:57.708Z,1.63
2018-07-02T17:42:27.247Z,1.93
2018-07-02T17:44:56.663Z,2.27
2018-07-02T17:47:27.477Z,2.33
2018-07-02T17:49:56.956Z,1.80
2018-07-02T17:52:26.438Z,1.80
2018-07-02T17:54:57.378Z,1.63
2018-07-02T17:57:27.066Z,1.90
2018-07-02T17:59:56.469Z,1.67
2018-07-02T18:02:25.945Z,1.73
2018-07-02T18:04:56.093Z,2.00
2018-07-02T18:07:25.542Z,1.87
2018-07-02T18:09:54.597Z,1.80
2018-07-02T18:12:24.041Z,1.67
2018-07-02T18:14:53.841Z,1.33
2018-07-02T18:17:23.433Z,2.00
2018-07-02T18:19:52.980Z,1.57
2018-07-02T18:22:22.402Z,1.50
2018-07-02T18:24:52.031Z,1.43
2018-07-02T18:27:21.270Z,1.40
2018-07-02T18:29:50.224Z,1.13
2018-07-02T18:32:20.161Z,1.50
2018-07-02T18:34:49.869Z,1.03
2018-07-02T18:37:19.534Z,1.80
2018-07-02T18:39:50.212Z,1.30
2018-07-02T18:42:20.019Z,1.70
2018-07-02T18:44:49.668Z,1.60
2018-07-02T18:47:19.317Z,1.47
2018-07-02T18:49:48.934Z,1.40
2018-07-02T18:52:18.100Z,1.60
2018-07-02T18:54:48.203Z,2.10
2018-07-02T18:57:19.830Z,1.87
2018-07-02T18:59:49.463Z,1.70
2018-07-02T19:02:19.019Z,1.80
2018-07-02T19:04:48.293Z,1.80
2018-07-02T19:07:19.298Z,2.10
2018-07-02T19:09:49.770Z,2.07
2018-07-02T19:12:19.409Z,1.97
2018-07-02T19:14:49.905Z,1.97
2018-07-02T19:17:19.631Z,1.93
2018-07-02T19:19:49.740Z,1.43
2018-07-02T19:22:19.233Z,1.80
2018-07-02T19:24:48.534Z,1.53
2018-07-02T19:27:17.997Z,1.97
2018-07-02T19:29:48.525Z,2.10
2018-07-02T19:32:18.495Z,1.97
2018-07-02T19:34:48.125Z,1.90
2018-07-02T19:37:18.338Z,2.07
2018-07-02T19:39:48.277Z,3.13
2018-07-02T19:42:18.579Z,1.80
2018-07-02T19:44:48.179Z,2.53
2018-07-02T19:47:17.719Z,2.20
2018-07-02T19:49:47.630Z,2.40
2018-07-02T19:52:17.317Z,2.20
2018-07-02T19:54:46.928Z,2.57
2018-07-02T19:57:16.792Z,2.30
2018-07-02T19:59:52.882Z,2.10
2018-07-02T20:02:22.307Z,1.93
2018-07-02T20:04:52.278Z,2.17
2018-07-02T20:07:21.573Z,2.57
2018-07-02T20:09:50.869Z,2.20
2018-07-02T20:12:20.539Z,2.70
2018-07-02T20:14:50.012Z,2.83
2018-07-02T20:17:19.135Z,3.27
2018-07-02T20:19:48.416Z,2.80
2018-07-02T20:22:18.777Z,2.67
2018-07-02T20:24:47.855Z,2.10
2018-07-02T20:27:17.268Z,2.37
2018-07-02T20:29:46.815Z,2.63
2018-07-02T20:32:15.995Z,2.23
2018-07-02T20:34:46.540Z,2.33
2018-07-02T20:37:15.607Z,2.97
2018-07-02T20:39:45.094Z,2.73
2018-07-02T20:42:14.812Z,2.60
2018-07-02T20:44:44.830Z,2.83
2018-07-02T20:47:14.359Z,2.70
2018-07-02T20:49:44.060Z,2.87
2018-07-02T20:52:13.584Z,2.70
2018-07-02T20:54:45.280Z,2.80
2018-07-02T20:57:15.253Z,3.17
2018-07-02T20:59:44.351Z,3.00
2018-07-02T21:02:14.233Z,3.20
2018-07-02T21:04:43.710Z,2.63
2018-07-02T21:07:13.347Z,2.63
2018-07-02T21:09:43.101Z,3.13
2018-07-02T21:12:12.472Z,3.47
2018-07-02T21:14:41.961Z,2.90
2018-07-02T21:17:11.643Z,3.13
2018-07-02T21:19:41.188Z,3.43
2018-07-02T21:22:11.073Z,2.90
2018-07-02T21:24:40.574Z,3.00
2018-07-02T21:27:09.964Z,2.97
2018-07-02T21:29:39.817Z,3.53
2018-07-02T21:32:09.263Z,5.83
2018-07-02T21:34:38.766Z,4.83
2018-07-02T21:37:08.236Z,2.97
2018-07-02T21:39:37.830Z,3.00
2018-07-02T21:42:07.490Z,3.37
2018-07-02T21:44:37.146Z,2.80
2018-07-02T21:47:06.914Z,2.57
2018-07-02T21:49:35.980Z,2.73
2018-07-02T21:52:05.263Z,3.00
2018-07-02T21:54:34.759Z,3.13
2018-07-02T21:57:04.271Z,3.60
2018-07-02T21:59:33.642Z,3.40
2018-07-02T22:02:03.262Z,3.50
2018-07-02T22:04:32.885Z,3.60
2018-07-02T22:07:02.610Z,3.20
2018-07-02T22:09:32.073Z,3.80
2018-07-02T22:12:01.812Z,3.77
2018-07-02T22:14:31.608Z,3.70
2018-07-02T22:17:01.965Z,3.37
2018-07-02T22:19:31.290Z,3.50
2018-07-02T22:22:00.545Z,3.70
2018-07-02T22:24:30.009Z,4.27
2018-07-02T22:26:59.577Z,4.87
2018-07-02T22:29:29.275Z,3.70
2018-07-02T22:31:58.668Z,3.07
2018-07-02T22:34:28.166Z,3.13
2018-07-02T22:36:57.358Z,3.20
2018-07-02T22:39:27.564Z,3.20
2018-07-02T22:41:57.523Z,3.63
2018-07-02T22:44:27.127Z,3.00
2018-07-02T22:46:56.529Z,3.20
2018-07-02T22:49:25.639Z,3.30
2018-07-02T22:51:55.821Z,2.90
2018-07-02T22:54:25.193Z,3.17
2018-07-02T22:56:55.568Z,3.23
2018-07-02T22:59:25.052Z,3.33
2018-07-02T23:01:54.637Z,3.10
2018-07-02T23:04:24.109Z,2.93
2018-07-02T23:06:53.489Z,3.13
2018-07-02T23:09:23.146Z,2.77
2018-07-02T23:11:52.713Z,3.00
2018-07-02T23:14:21.795Z,5.03
2018-07-02T23:16:50.779Z,4.10
2018-07-02T23:19:20.277Z,2.87
2018-07-02T23:21:50.021Z,3.30
2018-07-02T23:24:18.876Z,4.17
2018-07-02T23:26:48.217Z,3.80
2018-07-02T23:29:18.404Z,2.77
2018-07-02T23:31:48.095Z,5.07
2018-07-02T23:34:17.457Z,4.03
2018-07-02T23:36:46.872Z,3.60
2018-07-02T23:39:16.419Z,2.80
2018-07-02T23:41:45.833Z,2.43
2018-07-02T23:44:15.614Z,2.17
2018-07-02T23:46:44.991Z,2.30
2018-07-02T23:49:15.165Z,2.40
2018-07-02T23:51:45.059Z,2.20
2018-07-02T23:54:14.509Z,2.37
2018-07-02T23:56:43.981Z,2.40
2018-07-02T23:59:13.026Z,2.10
